• Join FlightAware (Why Join?)
  • Login
  • US Flag 
01:34AM EDT


 

Airport Tracker/Info


-or-


 

Live Flight TrackerFlight Track Log ✈ SWA36 ✈ 23-Aug-2013 ✈ KDAL - KSAT

Flight Track Log - Related Links

Times and Time Zones

All times are in EDT time to prevent confusion due to time zone crossing. See the SWA36 flight status page for this flight to view local times or setup timezone preferences in your user account.

Time Position Orientation Groundspeed Altitude Reporting Facility
EDT Latitude Longitude Course Direction KTS MPH feet Rate Location/Type
05:45PM 32.8167 -96.8167 140° Southeast 195 224 2,300  Level Dallas / Fort Worth TRACON
05:46PM 32.7500 -96.7833 157° South 251 289 4,900 2,400 Climbing Dallas / Fort Worth TRACON
05:48PM 32.5900 -96.8511 200° South 278 320 10,600 2,400 Climbing Fort Worth Center
05:49PM 32.5192 -96.8986 209° Southwest 290 334 13,100 2,400 Climbing Fort Worth Center
05:50PM 32.4422 -96.9506 210° Southwest 312 359 15,500 2,280 Climbing Fort Worth Center
05:51PM 32.3650 -97.0050 211° Southwest 319 367 17,700 1,680 Climbing Fort Worth Center
05:52PM 32.2900 -97.0547 209° Southwest 332 382 18,900 1,500 Climbing Fort Worth Center
05:53PM 32.1731 -97.0647 184° South 356 410 20,700 1,920 Climbing Fort Worth Center
05:54PM 32.0647 -97.0653 180° South 379 436 22,800 1,800 Climbing Fort Worth Center
05:55PM 31.9561 -97.0681 181° South 390 449 24,300 1,500 Climbing Fort Worth Center
05:56PM 31.8517 -97.0711 181° South 402 463 25,800 1,440 Climbing Fort Worth Center
05:57PM 31.7208 -97.0772 182° South 418 481 27,400 1,380 Climbing Houston Center
05:58PM 31.5994 -97.0806 181° South 429 494 28,800 1,200 Climbing Houston Center
05:59PM 31.4792 -97.1011 188° South 440 506 30,000 540 Climbing Houston Center
06:00PM 31.3433 -97.1550 199° South 437 503 30,000  Level Houston Center
06:01PM 31.2289 -97.2014 199° South 432 497 30,000  Level Houston Center
06:02PM 31.1153 -97.2456 198° South 429 494 30,000  Level Houston Center
06:03PM 31.0103 -97.2864 198° South 431 496 30,000  Level Houston Center
06:04PM 30.8694 -97.3400 198° South 443 510 30,000  Level Houston Center
06:05PM 30.7494 -97.3869 199° South 447 514 30,000 -60 Level Houston Center
06:06PM 30.6331 -97.4322 199° South 440 506 29,900 -1,260 Descending Houston Center
06:07PM 30.5147 -97.4775 198° South 442 509 27,400 -2,460 Descending Houston Center
06:08PM 30.3969 -97.5222 198° South 441 507 24,900 -2,400 Descending Houston Center
06:09PM 30.2953 -97.5892 210° Southwest 422 486 22,500 -2,460 Descending Houston Center
06:11PM 30.1839 -97.6642 210° Southwest 398 458 19,900 -2,340 Descending Houston Center
06:12PM 30.0922 -97.7286 211° Southwest 384 442 17,700 -2,160 Descending Houston Center
06:13PM 29.9992 -97.7928 211° Southwest 370 426 15,400 -2,160 Descending Houston Center
06:14PM 29.9125 -97.8528 211° Southwest 360 414 13,400 -1,740 Descending Houston Center
06:15PM 29.8561 -97.9497 236° Southwest 335 386 11,900 -1,560 Descending Houston Center
06:16PM 29.8128 -98.0389 241° Southwest 314 361 10,200 -1,680 Descending Houston Center
06:16PM 29.8128 -98.0389 241° Southwest 321 369 10,200 -1,920 Level Houston Center
06:17PM 29.7692 -98.1333 242° Southwest 310 357 8,300 -1,740 Descending Houston Center
06:18PM 29.7378 -98.2239 248° West 307 353 6,700 -1,140 Descending Houston Center
06:19PM 29.7056 -98.3072 246° West 277 319 6,000 -360 Descending Houston Center
06:20PM 29.6772 -98.3853 247° West 262 302 6,000 -480 Level Houston Center
06:21PM 29.6522 -98.4556 248° West 232 267 5,100 -1,140 Descending Houston Center
06:22PM 29.6650 -98.5286 281° West 211 243 3,700 -1,020 Descending Houston Center
06:23PM 29.6244 -98.5647 218° Southwest 193 222 3,100 -840 Descending Houston Center
06:24PM 29.5828 -98.5378 151° Southeast 154 177 2,000 -900 Descending Houston Center
06:25PM 29.5550 -98.4994 130° Southeast 146 168 1,200 -540 Descending Houston Center
06:26PM 29.5303 -98.4675 132° Southeast 141 162 900 -300 Descending Houston Center
06:28PM 29.5333 -98.4667 16° North  Level FlightAware Approximate
06:35PM 29.5340 -98.4691 16° North  Level Estimated